Time;durP1;ratioP1;P1;durP2;ratioP2;P2;SDS_P1;SDS_P2;PMS_P1;PMS_P2;Temp;Humidity;BMP_temperature;BMP_pressure;BME280_temperature;BME280_humidity;BME280_pressure;Samples;Min_cycle;Max_cycle;Signal;HPM_P1;HPM_P2
2021/11/20 00:01:34;;;;;;;7.30;6.40;;;;;;;10.70;67.02;100406.59;5093266;28;20237;-81
2021/11/20 00:04:00;;;;;;;10.07;6.80;;;;;;;10.69;67.19;100415.66;5076553;28;20232;-82
2021/11/20 00:06:31;;;;;;;7.93;6.73;;;;;;;10.69;67.20;100427.19;5076084;28;20593;-81
2021/11/20 00:08:59;;;;;;;8.37;7.50;;;;;;;10.73;66.99;100420.41;5075866;28;20289;-82
2021/11/20 00:11:29;;;;;;;8.97;7.07;;;;;;;10.68;67.05;100425.56;5093054;28;20636;-82
2021/11/20 00:13:58;;;;;;;9.80;7.60;;;;;;;10.57;66.95;100410.91;5093921;28;20224;-81
2021/11/20 00:16:26;;;;;;;9.03;7.80;;;;;;;10.58;67.33;100425.13;5078021;28;20228;-82
2021/11/20 00:18:56;;;;;;;8.63;7.73;;;;;;;10.52;67.33;100399.13;5080150;28;20250;-82
2021/11/20 00:21:52;;;;;;;10.73;8.53;;;;;;;10.62;67.04;100412.13;5062865;28;20220;-82
2021/11/20 00:24:28;;;;;;;8.70;7.80;;;;;;;10.57;67.09;100421.59;5094637;28;20224;-82
2021/11/20 00:26:57;;;;;;;10.60;8.50;;;;;;;10.59;66.54;100402.66;5078659;28;20256;-82
2021/11/20 00:29:45;;;;;;;11.60;8.80;;;;;;;10.58;66.92;100401.84;5078241;28;20247;-82
2021/11/20 00:32:34;;;;;;;11.30;9.50;;;;;;;10.49;67.28;100404.88;5064274;28;20239;-81
2021/11/20 00:35:08;;;;;;;10.73;8.80;;;;;;;10.49;67.29;100411.06;5061770;28;20252;-81
2021/11/20 00:37:40;;;;;;;9.60;8.20;;;;;;;10.39;67.53;100420.50;5077704;28;20224;-82
2021/11/20 00:40:26;;;;;;;10.17;8.50;;;;;;;10.53;67.30;100430.25;5093334;28;20232;-81
2021/11/20 00:42:56;;;;;;;10.07;8.77;;;;;;;10.44;67.56;100424.25;5046822;28;20221;-81
2021/11/20 00:45:24;;;;;;;10.50;8.50;;;;;;;10.54;67.23;100427.34;5060854;28;20285;-82
2021/11/20 00:47:52;;;;;;;11.03;9.13;;;;;;;10.44;67.35;100429.59;5062006;28;20576;-82
2021/11/20 00:50:25;;;;;;;11.17;9.57;;;;;;;10.46;67.26;100424.03;5063780;28;20228;-81
2021/11/20 00:52:53;;;;;;;10.27;9.17;;;;;;;10.48;67.22;100417.44;5079604;28;20233;-82
2021/11/20 00:55:38;;;;;;;10.60;9.37;;;;;;;10.48;67.22;100436.22;5084785;28;20225;-84
2021/11/20 00:58:10;;;;;;;11.07;9.67;;;;;;;10.45;67.37;100427.75;5075884;22;20220;-82
2021/11/20 01:00:42;;;;;;;10.77;8.93;;;;;;;10.50;67.38;100423.41;5095411;23;20241;-82
2021/11/20 01:03:14;;;;;;;11.43;9.20;;;;;;;10.49;67.36;100431.69;5056977;23;20263;-83
2021/11/20 01:05:42;;;;;;;11.33;9.40;;;;;;;10.37;67.30;100406.47;5030883;28;20231;-82
2021/11/20 01:08:12;;;;;;;10.40;9.17;;;;;;;10.46;67.48;100427.53;5078686;28;20507;-82
2021/11/20 01:10:44;;;;;;;10.57;9.13;;;;;;;10.37;67.77;100422.53;5064127;28;20240;-82
2021/11/20 01:13:14;;;;;;;11.23;8.83;;;;;;;10.48;67.37;100421.97;5045265;28;20567;-82
2021/11/20 01:15:47;;;;;;;11.67;9.03;;;;;;;10.54;67.48;100421.19;5061838;28;20241;-82
2021/11/20 01:18:18;;;;;;;10.20;8.70;;;;;;;10.50;67.61;100409.19;5069310;23;20706;-81
2021/11/20 01:20:48;;;;;;;9.10;7.97;;;;;;;10.40;67.65;100408.75;5030484;28;20256;-83
2021/11/20 01:23:17;;;;;;;11.07;8.73;;;;;;;10.32;67.77;100399.03;5064604;28;20236;-82
2021/11/20 01:25:52;;;;;;;8.93;8.00;;;;;;;10.49;67.59;100407.56;5014715;28;20260;-82
2021/11/20 01:28:38;;;;;;;11.30;8.87;;;;;;;10.48;67.73;100405.91;5050051;28;20225;-82
2021/11/20 01:31:28;;;;;;;7.83;6.17;;;;;;;10.45;67.81;100400.97;5070998;28;20229;-82
2021/11/20 01:33:56;;;;;;;7.63;6.17;;;;;;;10.47;67.94;100391.69;5036922;28;20233;-81
2021/11/20 01:36:29;;;;;;;7.27;6.00;;;;;;;10.43;68.25;100386.94;5053368;28;20278;-83
2021/11/20 01:39:17;;;;;;;8.77;6.40;;;;;;;10.50;68.37;100391.28;5070860;28;20233;-82
2021/11/20 01:42:24;;;;;;;7.17;6.47;;;;;;;10.40;68.60;100385.50;5036946;28;20217;-81
2021/11/20 01:46:04;;;;;;;8.70;6.47;;;;;;;10.37;68.65;100380.50;5049693;28;20233;-82
2021/11/20 01:48:57;;;;;;;6.90;6.20;;;;;;;10.27;69.10;100379.22;5070022;23;20249;-82
2021/11/20 01:51:51;;;;;;;10.27;7.00;;;;;;;10.29;69.40;100385.22;5105665;22;20239;-82
2021/11/20 01:54:22;;;;;;;9.50;7.53;;;;;;;10.23;69.92;100392.19;5067225;28;20229;-82
2021/11/20 01:57:16;;;;;;;7.67;6.97;;;;;;;10.15;70.16;100374.44;5075980;22;20286;-82
2021/11/20 02:00:01;;;;;;;8.60;7.17;;;;;;;10.15;69.92;100382.47;5048172;28;20217;-82
2021/11/20 02:03:22;;;;;;;10.17;7.27;;;;;;;10.24;69.68;100382.31;5064760;28;20225;-82
2021/11/20 02:06:20;;;;;;;9.00;7.70;;;;;;;10.18;69.88;100377.72;5063181;28;20272;-81
2021/11/20 02:09:17;;;;;;;10.13;7.40;;;;;;;10.20;70.16;100378.38;5045661;28;20633;-82
2021/11/20 02:12:28;;;;;;;8.27;7.43;;;;;;;10.11;70.46;100375.00;5041300;28;20229;-82
2021/11/20 02:15:07;;;;;;;9.57;7.27;;;;;;;10.07;70.56;100371.91;5050750;28;20220;-82
2021/11/20 02:17:51;;;;;;;10.53;7.50;;;;;;;10.02;70.59;100368.16;5048580;28;20225;-82
2021/11/20 02:20:56;;;;;;;7.27;6.40;;;;;;;10.02;70.67;100360.97;5034996;28;20601;-82
2021/11/20 02:23:57;;;;;;;9.00;6.80;;;;;;;10.08;70.19;100370.88;5062662;28;20231;-82
2021/11/20 02:26:27;;;;;;;6.93;6.03;;;;;;;9.93;71.11;100370.19;5032970;28;20637;-81
2021/11/20 02:29:08;;;;;;;6.40;5.63;;;;;;;9.89;70.93;100357.41;5031863;28;20259;-82
2021/11/20 02:31:58;;;;;;;6.63;5.57;;;;;;;9.81;71.38;100344.16;5064452;28;20296;-82
2021/11/20 02:34:46;;;;;;;6.43;5.73;;;;;;;9.98;71.27;100350.84;5064454;28;20316;-82
2021/11/20 02:37:17;;;;;;;6.30;5.40;;;;;;;9.85;71.72;100356.94;5048197;28;20233;-82
2021/11/20 02:39:49;;;;;;;7.27;5.50;;;;;;;9.79;72.21;100356.91;5033043;28;20238;-81
2021/11/20 02:42:25;;;;;;;7.37;5.47;;;;;;;9.73;72.67;100355.84;5064847;28;20263;-81
2021/11/20 02:45:39;;;;;;;7.30;5.70;;;;;;;9.80;72.83;100355.91;5068403;28;20284;-82
2021/11/20 02:48:12;;;;;;;5.70;5.10;;;;;;;9.74;73.02;100349.47;5055020;28;20221;-84
2021/11/20 02:50:58;;;;;;;7.07;6.00;;;;;;;9.65;73.33;100345.31;5067287;28;20283;-82
2021/11/20 02:53:32;;;;;;;5.80;5.20;;;;;;;9.75;73.43;100343.13;5085254;28;20247;-82
2021/11/20 02:56:00;;;;;;;6.87;5.83;;;;;;;9.67;73.77;100351.28;5084086;28;20689;-82
2021/11/20 02:58:32;;;;;;;8.70;5.83;;;;;;;9.74;73.29;100341.47;5099064;22;20237;-81
2021/11/20 03:01:17;;;;;;;7.77;6.23;;;;;;;9.73;73.65;100337.94;5050319;28;21719;-83
2021/11/20 03:03:46;;;;;;;6.97;5.73;;;;;;;9.76;73.62;100335.88;5083843;28;20236;-83
2021/11/20 03:06:15;;;;;;;6.73;6.03;;;;;;;9.76;73.72;100339.38;5068073;28;20224;-81
2021/11/20 03:08:51;;;;;;;7.70;6.30;;;;;;;9.78;74.06;100345.38;5100101;28;20227;-82
2021/11/20 03:11:20;;;;;;;7.10;6.40;;;;;;;9.66;74.11;100337.06;5050368;28;20624;-82
2021/11/20 03:13:51;;;;;;;6.73;6.03;;;;;;;9.72;74.29;100333.63;5099557;28;20232;-82
2021/11/20 03:17:04;;;;;;;7.63;6.33;;;;;;;9.64;74.61;100335.63;5069100;28;20229;-82
2021/11/20 03:19:37;;;;;;;6.67;5.97;;;;;;;9.74;74.02;100330.75;5082756;28;20221;-82
2021/11/20 03:22:11;;;;;;;6.70;6.10;;;;;;;9.62;74.46;100324.28;5081560;28;20286;-83
2021/11/20 03:24:47;;;;;;;7.10;6.40;;;;;;;9.67;74.28;100327.19;5087079;28;20658;-84
2021/11/20 03:27:18;;;;;;;7.20;6.17;;;;;;;9.62;74.36;100321.59;5092759;28;20234;-82
2021/11/20 03:29:54;;;;;;;7.30;6.60;;;;;;;9.53;74.41;100322.78;5091859;28;20219;-82
2021/11/20 03:32:31;;;;;;;7.93;6.70;;;;;;;9.59;74.56;100319.34;5098452;23;21304;-82
2021/11/20 03:35:08;;;;;;;8.57;6.80;;;;;;;9.62;74.59;100314.41;5090078;28;20319;-83
2021/11/20 03:37:46;;;;;;;8.67;7.40;;;;;;;9.59;74.53;100325.50;5100195;23;20238;-82
2021/11/20 03:40:36;;;;;;;7.53;6.70;;;;;;;9.74;73.60;100322.72;5077802;28;20219;-82
2021/11/20 03:43:08;;;;;;;8.60;6.83;;;;;;;9.64;73.51;100319.56;5124069;22;20231;-83
2021/11/20 03:45:42;;;;;;;9.10;7.23;;;;;;;9.57;74.05;100310.66;5109044;28;20619;-83
2021/11/20 03:48:16;;;;;;;8.37;7.23;;;;;;;9.65;73.68;100313.22;5098672;22;20236;-82
2021/11/20 03:50:48;;;;;;;8.17;6.93;;;;;;;9.53;73.79;100299.53;5086717;28;20221;-82
2021/11/20 03:53:21;;;;;;;8.60;7.53;;;;;;;9.64;73.52;100308.88;5077571;28;20651;-82
2021/11/20 03:55:50;;;;;;;9.20;7.30;;;;;;;9.65;73.53;100316.72;5044452;28;20227;-80
2021/11/20 03:58:22;;;;;;;8.23;7.33;;;;;;;9.53;73.59;100317.44;5078193;28;20648;-82
2021/11/20 04:01:00;;;;;;;8.03;7.20;;;;;;;9.65;73.95;100324.75;5093490;28;20224;-82
2021/11/20 04:03:31;;;;;;;11.23;8.33;;;;;;;9.53;73.66;100326.28;5061579;28;20212;-81
2021/11/20 04:05:58;;;;;;;6.90;6.23;;;;;;;9.53;73.60;100317.44;5061630;28;20233;-82
2021/11/20 04:08:28;;;;;;;8.03;7.23;;;;;;;9.53;73.71;100314.75;5044502;28;20221;-81
2021/11/20 04:11:29;;;;;;;7.47;6.77;;;;;;;9.60;73.58;100327.19;5060905;28;20220;-82
2021/11/20 04:13:59;;;;;;;6.80;6.10;;;;;;;9.59;73.41;100333.53;5087867;22;20223;-82
2021/11/20 04:16:32;;;;;;;7.10;6.40;;;;;;;9.64;73.54;100347.16;5067299;28;20231;-82
2021/11/20 04:19:20;;;;;;;7.50;6.73;;;;;;;9.69;73.47;100350.06;5069412;28;20220;-82
2021/11/20 04:21:58;;;;;;;7.03;6.33;;;;;;;9.56;73.41;100330.44;5086476;28;20215;-82
2021/11/20 04:24:26;;;;;;;7.07;6.17;;;;;;;9.51;73.89;100338.22;5085372;28;20231;-82
2021/11/20 04:27:06;;;;;;;6.70;6.10;;;;;;;9.51;74.12;100335.53;5082990;28;20235;-81
2021/11/20 04:29:52;;;;;;;6.50;5.80;;;;;;;9.54;74.06;100338.66;5083412;28;20227;-82
2021/11/20 04:32:22;;;;;;;7.43;6.20;;;;;;;9.58;73.70;100339.91;5080302;28;20521;-82
2021/11/20 04:34:53;;;;;;;6.80;6.10;;;;;;;9.58;73.49;100331.88;5082071;28;20224;-81
2021/11/20 04:37:23;;;;;;;7.10;6.30;;;;;;;9.63;73.72;100348.16;5099638;28;20242;-81
2021/11/20 04:39:59;;;;;;;7.77;6.60;;;;;;;9.52;74.63;100342.53;5177060;22;20278;-84
2021/11/20 04:42:37;;;;;;;6.47;5.80;;;;;;;9.56;74.79;100351.84;5066349;28;20227;-82
2021/11/20 04:45:24;;;;;;;7.23;6.53;;;;;;;9.44;74.88;100342.69;5064140;28;20251;-82
2021/11/20 04:47:59;;;;;;;6.90;6.20;;;;;;;9.24;75.89;100331.81;4621709;23;12352728;-82
2021/11/20 04:50:51;;;;;;;6.63;5.67;;;;;;;9.32;75.56;100338.91;5024768;23;20249;-81
2021/11/20 04:53:44;;;;;;;5.77;5.23;;;;;;;9.32;75.49;100339.72;5008724;28;20262;-81
2021/11/20 04:56:34;;;;;;;5.83;5.27;;;;;;;9.33;75.54;100338.72;5023966;28;20241;-83
2021/11/20 04:59:19;;;;;;;7.30;4.40;;;;;;;9.32;76.04;100342.41;5036516;28;20219;-84
2021/11/20 05:01:58;;;;;;;4.73;4.27;;;;;;;9.27;76.10;100350.19;5020465;28;20234;-85
2021/11/20 05:04:43;;;;;;;4.73;4.33;;;;;;;9.30;76.48;100352.44;5037096;28;20227;-82
2021/11/20 05:07:50;;;;;;;4.13;3.70;;;;;;;9.27;76.35;100339.47;5024003;28;20226;-83
2021/11/20 05:10:18;;;;;;;3.00;2.80;;;;;;;9.38;75.73;100330.09;5004163;28;20254;-84
2021/11/20 05:13:01;;;;;;;2.73;2.53;;;;;;;9.24;75.62;100307.75;5035888;28;20273;-82
2021/11/20 05:15:29;;;;;;;2.60;2.40;;;;;;;9.26;76.03;100324.44;5028427;28;20224;-82
2021/11/20 05:17:57;;;;;;;3.10;2.27;;;;;;;9.10;76.15;100320.22;4996800;28;20257;-83
2021/11/20 05:20:59;;;;;;;2.60;2.40;;;;;;;9.11;75.56;100319.19;5019781;28;20618;-81
2021/11/20 05:23:53;;;;;;;2.67;2.43;;;;;;;9.03;75.42;100311.31;5014873;28;20229;-83
2021/11/20 05:26:37;;;;;;;2.80;2.50;;;;;;;8.94;75.59;100303.63;5012660;28;20321;-81
2021/11/20 05:30:15;;;;;;;2.90;2.60;;;;;;;8.98;75.03;100308.41;5028800;28;20223;-81
2021/11/20 05:32:24;;;;;;;2.93;2.63;;;;;;;8.82;75.66;100292.63;5008269;28;20526;-84
2021/11/20 05:35:04;;;;;;;3.17;2.87;;;;;;;8.78;75.42;100312.72;5025746;28;20257;-84
2021/11/20 05:37:40;;;;;;;3.30;3.00;;;;;;;8.82;75.69;100308.66;5025779;28;20204;-84
2021/11/20 05:40:18;;;;;;;3.30;3.00;;;;;;;8.75;75.88;100305.09;5024970;28;20279;-84
2021/11/20 05:42:59;;;;;;;3.67;2.60;;;;;;;8.59;75.88;100298.16;4993786;28;20237;-84
2021/11/20 05:45:33;;;;;;;3.10;2.77;;;;;;;8.68;76.16;100317.56;5026046;28;20220;-83
2021/11/20 05:48:03;;;;;;;3.07;2.77;;;;;;;8.51;76.19;100324.16;5025966;28;20630;-82
2021/11/20 05:50:45;;;;;;;3.30;3.00;;;;;;;8.65;75.42;100301.91;5027259;28;20590;-84
2021/11/20 05:53:47;;;;;;;2.87;2.67;;;;;;;8.63;76.09;100325.34;4985011;28;20257;-84
2021/11/20 05:56:25;;;;;;;3.27;2.97;;;;;;;8.56;75.21;100309.22;4998834;28;20681;-84
2021/11/20 05:59:20;;;;;;;3.00;2.80;;;;;;;8.61;75.12;100314.84;5013839;28;20207;-84
2021/11/20 06:01:50;;;;;;;3.13;2.83;;;;;;;8.58;75.41;100319.75;5020281;28;20238;-83
2021/11/20 06:04:18;;;;;;;3.20;2.90;;;;;;;8.54;75.09;100321.94;5021151;28;20565;-83
2021/11/20 06:06:45;;;;;;;3.20;2.90;;;;;;;8.63;74.94;100328.00;4987356;28;20268;-83
2021/11/20 06:09:14;;;;;;;3.20;2.90;;;;;;;8.66;74.87;100324.94;4988147;28;20642;-84
2021/11/20 06:11:42;;;;;;;4.03;2.77;;;;;;;8.70;74.53;100320.88;5004921;28;20314;-84
2021/11/20 06:14:11;;;;;;;3.90;2.90;;;;;;;8.65;74.26;100326.78;5005843;28;20223;-83
2021/11/20 06:16:38;;;;;;;2.90;2.70;;;;;;;8.71;73.83;100312.69;5004926;28;20694;-84
2021/11/20 06:19:06;;;;;;;3.23;2.60;;;;;;;8.84;73.20;100318.16;4988068;28;20245;-83
2021/11/20 06:21:39;;;;;;;2.90;2.67;;;;;;;8.78;72.94;100316.22;4988566;28;20262;-83
2021/11/20 06:24:07;;;;;;;2.77;2.37;;;;;;;8.86;73.11;100330.50;5019948;28;20234;-83
2021/11/20 06:26:38;;;;;;;2.50;2.30;;;;;;;9.00;72.42;100325.06;5019771;28;20305;-82
2021/11/20 06:29:17;;;;;;;2.50;2.20;;;;;;;8.96;71.90;100322.97;4994956;28;20231;-84
2021/11/20 06:32:08;;;;;;;2.13;1.93;;;;;;;8.98;72.01;100328.94;5024931;28;20233;-83
2021/11/20 06:35:11;;;;;;;2.90;2.10;;;;;;;9.07;71.70;100331.28;5056320;23;20279;-84
2021/11/20 06:37:44;;;;;;;2.17;1.97;;;;;;;9.06;71.75;100316.25;4989547;28;20227;-83
2021/11/20 06:40:42;;;;;;;2.23;2.00;;;;;;;9.03;71.34;100327.34;5018758;28;20231;-84
2021/11/20 06:43:17;;;;;;;1.90;1.80;;;;;;;9.08;71.11;100337.47;4998091;28;20199;-84
2021/11/20 06:46:27;;;;;;;2.10;1.90;;;;;;;9.22;70.54;100331.22;5014432;28;20234;-84
2021/11/20 06:49:23;;;;;;;2.20;2.00;;;;;;;9.32;69.98;100328.19;5013735;28;20234;-84
2021/11/20 06:52:09;;;;;;;2.00;1.70;;;;;;;9.26;69.68;100329.81;5030915;28;20235;-84
2021/11/20 06:55:18;;;;;;;2.13;1.90;;;;;;;9.25;69.98;100333.50;5016808;28;20190;-85
2021/11/20 07:00:58;;;;;;;1.60;1.50;;;;;;;9.32;68.93;100323.69;5010661;28;20283;-82
2021/11/20 07:03:52;;;;;;;1.70;1.60;;;;;;;9.45;68.87;100341.66;5028008;28;20235;-82
2021/11/20 07:06:42;;;;;;;1.60;1.50;;;;;;;9.49;68.74;100343.75;5040465;28;20562;-81
2021/11/20 07:09:19;;;;;;;1.20;1.10;;;;;;;9.67;67.74;100352.09;5008375;28;20547;-82
2021/11/20 07:11:52;;;;;;;1.20;1.10;;;;;;;9.72;67.49;100346.16;5021437;28;20235;-82
2021/11/20 07:14:33;;;;;;;1.30;1.20;;;;;;;9.78;67.09;100331.19;5019693;28;20227;-81
2021/11/20 07:17:13;;;;;;;0.90;0.90;;;;;;;9.96;67.02;100351.03;5020895;28;20293;-81
2021/11/20 07:20:26;;;;;;;1.10;1.00;;;;;;;9.96;66.54;100356.41;5005600;28;20633;-82
2021/11/20 07:23:17;;;;;;;0.93;0.93;;;;;;;10.06;65.78;100338.13;5110517;23;20234;-83
2021/11/20 07:25:49;;;;;;;1.00;0.90;;;;;;;10.12;65.81;100357.94;5052211;28;20662;-81
2021/11/20 07:28:19;;;;;;;1.20;0.90;;;;;;;10.08;65.63;100336.06;5084691;28;20289;-81
2021/11/20 07:31:45;;;;;;;1.00;0.90;;;;;;;10.19;65.39;100357.97;5107160;28;20311;-83
2021/11/20 07:34:29;;;;;;;0.77;0.77;;;;;;;10.22;65.27;100357.59;5106341;28;20228;-82
2021/11/20 07:37:10;;;;;;;1.00;1.00;;;;;;;10.26;65.42;100348.13;5089765;28;20219;-82
2021/11/20 07:39:57;;;;;;;1.23;1.10;;;;;;;10.30;65.25;100349.38;5092494;28;20502;-82
2021/11/20 07:42:47;;;;;;;0.90;0.90;;;;;;;10.38;64.55;100327.75;5104741;28;20222;-82
2021/11/20 07:45:35;;;;;;;0.90;0.90;;;;;;;10.64;63.79;100346.59;5102869;28;20227;-82
2021/11/20 07:48:15;;;;;;;0.80;0.80;;;;;;;10.83;62.81;100336.94;5093034;22;20228;-81
2021/11/20 07:50:46;;;;;;;1.03;0.80;;;;;;;10.87;63.25;100339.00;5067400;28;20522;-82
2021/11/20 07:53:42;;;;;;;0.70;0.70;;;;;;;11.02;62.66;100336.13;5084879;28;20232;-82
2021/11/20 07:56:50;;;;;;;1.30;0.73;;;;;;;11.19;61.74;100337.41;5036519;28;20228;-82
2021/11/20 07:59:25;;;;;;;1.00;0.90;;;;;;;11.42;61.54;100339.66;5083456;28;20224;-82
2021/11/20 08:02:02;;;;;;;0.60;0.60;;;;;;;11.44;61.38;100324.97;5099819;22;20225;-83
2021/11/20 08:04:56;;;;;;;0.60;0.60;;;;;;;11.38;61.05;100331.16;5046102;23;20206;-83
2021/11/20 08:07:54;;;;;;;0.67;0.63;;;;;;;11.30;60.95;100320.66;5065977;28;20240;-82
2021/11/20 08:10:49;;;;;;;0.83;0.60;;;;;;;11.57;60.76;100326.00;5065876;28;20221;-84
2021/11/20 08:13:22;;;;;;;0.87;0.70;;;;;;;11.68;60.30;100330.72;5063759;23;20209;-81
2021/11/20 08:15:59;;;;;;;0.73;0.73;;;;;;;11.72;59.87;100321.22;5090380;28;20227;-82
2021/11/20 08:18:53;;;;;;;0.60;0.60;;;;;;;11.78;60.33;100321.25;5081416;22;20228;-84
2021/11/20 08:21:36;;;;;;;0.60;0.60;;;;;;;11.99;59.16;100330.06;5078311;28;20295;-84
2021/11/20 08:24:12;;;;;;;0.77;0.60;;;;;;;12.08;58.98;100326.13;5085411;28;20216;-83
2021/11/20 08:26:43;;;;;;;0.67;0.50;;;;;;;12.19;58.80;100330.81;5103240;28;20219;-82
2021/11/20 08:29:15;;;;;;;0.60;0.60;;;;;;;12.33;58.50;100332.41;5078463;22;20227;-81
2021/11/20 08:31:45;;;;;;;0.67;0.67;;;;;;;12.38;58.19;100321.84;5091521;28;20270;-82
2021/11/20 08:34:21;;;;;;;0.40;0.40;;;;;;;12.48;57.53;100319.50;5105969;28;20235;-82
2021/11/20 08:37:09;;;;;;;0.40;0.40;;;;;;;12.52;57.45;100328.78;5079169;28;20244;-83
2021/11/20 08:39:59;;;;;;;1.13;0.60;;;;;;;12.46;57.16;100332.31;5058273;28;20224;-82
2021/11/20 08:42:27;;;;;;;0.83;0.60;;;;;;;12.46;57.42;100328.84;5085003;28;20583;-82
2021/11/20 08:44:55;;;;;;;0.50;0.50;;;;;;;12.42;57.39;100330.28;5102054;28;20524;-83
2021/11/20 08:47:29;;;;;;;2.53;0.40;;;;;;;12.44;57.22;100328.22;5091497;28;20235;-81
2021/11/20 08:49:56;;;;;;;0.90;0.50;;;;;;;12.41;57.72;100332.13;5074952;28;20274;-82
2021/11/20 08:52:25;;;;;;;0.50;0.40;;;;;;;12.39;57.46;100325.34;5077408;28;20227;-81
2021/11/20 08:54:56;;;;;;;1.80;0.60;;;;;;;12.20;58.18;100306.41;5076493;23;20239;-84
2021/11/20 08:57:25;;;;;;;0.50;0.50;;;;;;;12.38;57.62;100326.38;5054958;28;20228;-81
2021/11/20 09:00:09;;;;;;;3.60;0.60;;;;;;;12.13;58.53;100315.56;5056951;28;20220;-81
2021/11/20 09:03:29;;;;;;;1.50;0.50;;;;;;;12.07;58.52;100338.72;5075454;28;20224;-82
2021/11/20 09:06:05;;;;;;;0.40;0.40;;;;;;;11.88;58.96;100331.53;5086521;28;20224;-81
2021/11/20 09:08:44;;;;;;;0.40;0.40;;;;;;;11.73;59.60;100325.59;5067418;28;20224;-81
2021/11/20 09:11:26;;;;;;;0.40;0.40;;;;;;;11.65;59.95;100321.25;5064965;28;20236;-82
2021/11/20 09:13:56;;;;;;;0.50;0.50;;;;;;;11.74;59.96;100338.81;5084089;28;20229;-82
2021/11/20 09:16:30;;;;;;;1.10;0.50;;;;;;;11.73;60.01;100336.31;5037830;28;20225;-81
2021/11/20 09:18:59;;;;;;;0.50;0.50;;;;;;;11.68;60.09;100328.88;5072947;28;20237;-81
2021/11/20 09:21:30;;;;;;;1.30;0.40;;;;;;;11.78;59.93;100333.84;5085005;28;20225;-82
2021/11/20 09:24:30;;;;;;;0.40;0.40;;;;;;;11.98;59.76;100340.00;5085582;28;20220;-82
2021/11/20 09:27:26;;;;;;;0.60;0.50;;;;;;;12.28;59.18;100351.03;5075893;23;20229;-81
2021/11/20 09:29:56;;;;;;;0.40;0.40;;;;;;;12.38;58.35;100331.75;5018701;28;20240;-81
2021/11/20 09:32:24;;;;;;;0.70;0.40;;;;;;;12.47;56.79;100320.53;5029992;28;20276;-82
2021/11/20 09:35:01;;;;;;;1.00;0.80;;;;;;;12.66;57.37;100322.28;5030059;28;20232;-81
2021/11/20 09:37:56;;;;;;;1.23;0.60;;;;;;;12.78;57.18;100322.44;5030510;28;20210;-81
2021/11/20 09:40:29;;;;;;;1.27;0.70;;;;;;;12.79;56.76;100308.75;5036563;28;20236;-82
2021/11/20 09:43:01;;;;;;;0.77;0.77;;;;;;;12.79;56.75;100300.69;5018445;28;20232;-82
2021/11/20 09:45:43;;;;;;;0.80;0.80;;;;;;;12.80;56.50;100288.91;5048294;28;20236;-83
2021/11/20 09:48:17;;;;;;;1.20;1.10;;;;;;;12.64;57.19;100277.88;5031947;28;20280;-81
2021/11/20 09:51:06;;;;;;;0.90;0.80;;;;;;;12.94;55.85;100283.41;5045875;28;20246;-82
2021/11/20 09:53:34;;;;;;;0.90;0.90;;;;;;;12.86;56.50;100281.00;5019421;28;20303;-82
2021/11/20 09:56:16;;;;;;;1.90;0.90;;;;;;;12.83;56.61;100268.81;5014617;28;20236;-82
2021/11/20 09:58:47;;;;;;;0.70;0.70;;;;;;;12.80;56.48;100277.31;5041179;28;20236;-82
2021/11/20 10:01:49;;;;;;;1.07;0.80;;;;;;;12.88;56.04;100284.31;5052077;28;20233;-80
2021/11/20 10:04:32;;;;;;;0.90;0.90;;;;;;;12.89;55.86;100283.25;5046873;28;20217;-82
2021/11/20 10:07:30;;;;;;;1.23;1.13;;;;;;;12.84;56.79;100278.53;5067820;28;20233;-82
2021/11/20 10:10:23;;;;;;;1.30;0.93;;;;;;;12.80;55.72;100272.78;4981496;28;20235;-81
2021/11/20 10:13:03;;;;;;;0.80;0.80;;;;;;;12.83;55.97;100268.00;5035530;28;20728;-82
2021/11/20 10:15:37;;;;;;;1.17;1.07;;;;;;;12.72;55.63;100264.97;5051191;28;20277;-81
2021/11/20 10:18:27;;;;;;;3.33;1.20;;;;;;;12.84;55.79;100273.16;5052416;28;20203;-83
2021/11/20 10:21:10;;;;;;;1.20;1.10;;;;;;;12.66;55.98;100270.38;5034853;28;20226;-83
2021/11/20 10:24:03;;;;;;;1.20;1.10;;;;;;;12.67;56.06;100272.88;5052946;28;20210;-82
2021/11/20 10:27:10;;;;;;;1.43;0.87;;;;;;;12.66;55.68;100262.31;5062225;23;20221;-82
2021/11/20 10:30:32;;;;;;;1.83;1.20;;;;;;;12.61;55.82;100262.97;5053563;28;20201;-83
2021/11/20 10:33:43;;;;;;;1.30;1.20;;;;;;;12.65;55.65;100264.19;5023636;28;20226;-84
2021/11/20 10:36:16;;;;;;;1.43;1.33;;;;;;;12.78;55.87;100256.00;5060213;28;20233;-82
2021/11/20 10:39:08;;;;;;;1.30;1.20;;;;;;;12.64;55.72;100259.88;5070719;28;20297;-83
2021/11/20 10:42:00;;;;;;;1.40;1.30;;;;;;;12.86;55.58;100244.19;5072601;28;20194;-82
2021/11/20 10:45:04;;;;;;;1.50;1.40;;;;;;;12.88;55.26;100241.28;5059034;28;20217;-82
2021/11/20 10:47:39;;;;;;;1.30;1.20;;;;;;;12.79;55.30;100238.84;5072356;28;20215;-81
2021/11/20 10:50:47;;;;;;;2.07;1.80;;;;;;;12.85;55.02;100237.16;5055751;28;20227;-82
2021/11/20 10:53:38;;;;;;;1.87;1.47;;;;;;;12.81;54.87;100246.72;5073746;28;20201;-81
2021/11/20 10:56:31;;;;;;;1.50;1.40;;;;;;;12.80;54.69;100236.97;5095818;23;20250;-82
2021/11/20 10:59:24;;;;;;;1.40;1.30;;;;;;;12.77;55.13;100240.94;5084549;28;20237;-83
2021/11/20 11:01:54;;;;;;;1.63;1.43;;;;;;;12.75;54.92;100234.13;5070995;28;20197;-83
2021/11/20 11:04:58;;;;;;;1.90;1.70;;;;;;;12.78;54.97;100231.03;5070612;28;20240;-81
2021/11/20 11:08:00;;;;;;;1.63;1.50;;;;;;;12.90;55.14;100239.19;5079649;28;20311;-82
2021/11/20 11:10:48;;;;;;;1.53;1.43;;;;;;;12.72;55.39;100211.22;5059495;28;20251;-82
2021/11/20 11:14:02;;;;;;;1.80;1.70;;;;;;;12.92;54.59;100237.09;5031034;28;20704;-82
2021/11/20 11:16:59;;;;;;;2.00;1.80;;;;;;;12.77;55.20;100235.56;5029044;28;20253;-82
2021/11/20 11:19:30;;;;;;;2.57;1.60;;;;;;;12.94;55.39;100227.75;5027064;28;20226;-82
2021/11/20 11:22:37;;;;;;;1.80;1.60;;;;;;;12.87;55.31;100229.69;5059419;28;20232;-82
2021/11/20 11:25:29;;;;;;;1.97;1.67;;;;;;;12.88;54.73;100228.63;5024078;28;20210;-81
2021/11/20 11:28:27;;;;;;;2.00;1.57;;;;;;;12.95;54.09;100224.03;5074009;23;20567;-81
2021/11/20 11:31:25;;;;;;;2.20;2.00;;;;;;;13.00;54.35;100220.69;5040355;28;20234;-81
2021/11/20 11:34:10;;;;;;;2.30;1.93;;;;;;;13.05;54.44;100232.44;5040400;23;20231;-82
2021/11/20 11:37:01;;;;;;;2.00;1.80;;;;;;;13.00;55.16;100226.88;5020670;28;20227;-81
2021/11/20 11:39:39;;;;;;;2.17;1.97;;;;;;;12.84;55.29;100222.06;5006847;28;20237;-82
2021/11/20 11:42:37;;;;;;;2.60;2.03;;;;;;;12.98;54.97;100222.75;5005891;28;20223;-81
2021/11/20 11:45:39;;;;;;;1.93;1.77;;;;;;;12.96;55.15;100212.25;5005630;28;20317;-82
2021/11/20 11:48:45;;;;;;;2.10;1.90;;;;;;;13.04;54.60;100221.88;5008099;28;20230;-82
2021/11/20 11:51:41;;;;;;;2.00;1.90;;;;;;;13.01;55.07;100200.81;5099873;23;20237;-81
2021/11/20 11:54:15;;;;;;;2.10;1.90;;;;;;;12.97;55.04;100203.09;5086917;28;20220;-82
2021/11/20 11:57:02;;;;;;;3.60;2.20;;;;;;;13.13;54.41;100191.00;5086315;28;20232;-81
2021/11/20 11:59:36;;;;;;;2.73;2.33;;;;;;;12.74;55.75;100192.97;5071454;28;20195;-82
2021/11/20 12:02:38;;;;;;;2.50;2.30;;;;;;;12.79;56.34;100185.06;5083791;28;20220;-82
2021/11/20 12:05:33;;;;;;;2.43;2.23;;;;;;;12.64;56.99;100184.59;5077597;28;20216;-81
2021/11/20 12:08:36;;;;;;;2.37;1.97;;;;;;;12.79;56.68;100176.19;5067082;28;20193;-82
2021/11/20 12:11:25;;;;;;;1.90;1.80;;;;;;;12.93;55.76;100169.63;5088431;28;20248;-80
2021/11/20 12:14:28;;;;;;;2.30;2.10;;;;;;;12.96;54.74;100169.22;5085531;28;20224;-81
2021/11/20 12:18:10;;;;;;;2.33;2.13;;;;;;;12.95;55.44;100164.88;5090545;28;20188;-81
2021/11/20 12:21:04;;;;;;;2.63;2.43;;;;;;;12.90;54.67;100151.25;5088812;28;20258;-81
2021/11/20 12:24:20;;;;;;;3.67;2.10;;;;;;;12.90;54.95;100140.50;5086733;23;20237;-81
2021/11/20 12:27:23;;;;;;;2.40;2.20;;;;;;;12.96;54.65;100136.09;5012699;28;20253;-81
2021/11/20 12:30:32;;;;;;;2.40;2.20;;;;;;;12.83;54.29;100136.25;5058282;23;20233;-81
2021/11/20 12:33:26;;;;;;;2.17;1.97;;;;;;;12.82;54.11;100127.34;5069916;28;20233;-81
2021/11/20 12:36:37;;;;;;;2.50;2.30;;;;;;;12.78;54.68;100121.56;5051557;28;20288;-81
2021/11/20 12:39:55;;;;;;;2.20;2.10;;;;;;;12.80;54.61;100116.00;5075958;23;20229;-81
2021/11/20 12:42:58;;;;;;;2.60;2.40;;;;;;;12.82;55.08;100113.09;4968788;29;20244;-81
2021/11/20 12:45:59;;;;;;;3.80;2.70;;;;;;;12.78;55.11;100104.66;5060773;23;20227;-80